Evelyn Maersk — OXHV2 — position and weather

sailwx.info

Track history (hours):
 
Tides and Currents Weather Stations Pressure Air Temp Water Temp Dewpoint Dewpoint Depression Visibility Wind Speed Wind Dir Waves Ship Positions

Evelyn Maersk

Last reported at 2014-Aug-20 03:00 UTC. Time now 2014-Aug-23 15:25 UTC.
Position N 06°06' E 091°06'.

; draft 14.4 m.

Type: Cargo ship. MMSI: 220496000.

Wind from 260 at 7 knots

Waves 0.5 meters (2 feet), 5 second period

Barometer 1011.6 mb
Air temperature 29.0 ° C
Visibility: greater than 10.8 NM
Dewpoint 24.9 ° C
Water temperature 29.0 ° C

Date/timePositionNaut miles runAvg speedWind from/ knotsBaromVisibWave heightAir tempDewpointWater temp
2014-Aug-20 03:00N 06°06' E 091°06'   260 / 71011.610.8 0.529.024.929.0
2014-Aug-17 00:30N 01°09' E 103°42'9 9.9
2014-Aug-16 23:33N 01°12' E 103°51'1211.8
2014-Aug-16 22:34N 01°16' E 104°02'  
2014-Aug-12 20:08N 22°42' E 116°49'1321.8
2014-Aug-12 19:32N 22°50' E 116°60'4521.3
2014-Aug-12 17:26N 23°20' E 117°36'1921.1
2014-Aug-12 16:33N 23°31' E 117°52'2120.8
2014-Aug-12 15:33N 23°44' E 118°10'2120.2
2014-Aug-12 14:33N 23°58' E 118°27'38920.3
2014-Aug-11 19:24N 29°02' E 122°57'2022.3
2014-Aug-11 18:31N 29°22' E 122°59'2221.7
2014-Aug-11 17:30N 29°44' E 123°02'2121.7
2014-Aug-11 16:31N 30°05' E 123°05'1918.8
2014-Aug-11 15:31N 30°22' E 122°54'1818.3
2014-Aug-11 14:33N 30°30' E 122°36'1313.3
2014-Aug-11 13:33N 30°32' E 122°21'9 9.1
2014-Aug-11 12:33N 30°34' E 122°11'8 7.8
2014-Aug-11 11:33N 30°38' E 122°03'0 0.0
2014-Aug-11 10:33N 30°38' E 122°03'0 0.0
2014-Aug-10 10:33N 30°38' E 122°03'2 1.8
2014-Aug-10 09:34N 30°37' E 122°04'9 8.9
2014-Aug-10 08:33N 30°33' E 122°14'9 8.5
2014-Aug-10 07:33N 30°33' E 122°24'1312.7
2014-Aug-10 06:33N 30°30' E 122°38'1212.1
2014-Aug-10 05:33N 30°24' E 122°50'1111.3
2014-Aug-10 04:33N 30°16' E 122°59'1612.4
2014-Aug-10 03:17N 30°00' E 122°54'  
Track history (hours):
 
Tides and Currents Weather Stations Pressure Air Temp Water Temp Dewpoint Dewpoint Depression Visibility Wind Speed Wind Dir Waves Ship Positions

Evelyn Maersk

Last reported at 2014-Aug-20 03:00 UTC. Time now 2014-Aug-23 15:25 UTC.
Position N 06°06' E 091°06'.

; draft 14.4 m.

Type: Cargo ship. MMSI: 220496000.

Wind from 260 at 7 knots

Waves 0.5 meters (2 feet), 5 second period

Barometer 1011.6 mb
Air temperature 29.0 ° C
Visibility: greater than 10.8 NM
Dewpoint 24.9 ° C
Water temperature 29.0 ° C

Date/timePositionNaut miles runAvg speedWind from/ knotsBaromVisibWave heightAir tempDewpointWater temp
2014-Aug-20 03:00N 06°06' E 091°06'   260 / 71011.610.8 0.529.024.929.0
2014-Aug-17 00:30N 01°09' E 103°42'9 9.9
2014-Aug-16 23:33N 01°12' E 103°51'1211.8
2014-Aug-16 22:34N 01°16' E 104°02'  
2014-Aug-12 20:08N 22°42' E 116°49'1321.8
2014-Aug-12 19:32N 22°50' E 116°60'4521.3
2014-Aug-12 17:26N 23°20' E 117°36'1921.1
2014-Aug-12 16:33N 23°31' E 117°52'2120.8
2014-Aug-12 15:33N 23°44' E 118°10'2120.2
2014-Aug-12 14:33N 23°58' E 118°27'38920.3
2014-Aug-11 19:24N 29°02' E 122°57'2022.3
2014-Aug-11 18:31N 29°22' E 122°59'2221.7
2014-Aug-11 17:30N 29°44' E 123°02'2121.7
2014-Aug-11 16:31N 30°05' E 123°05'1918.8
2014-Aug-11 15:31N 30°22' E 122°54'1818.3
2014-Aug-11 14:33N 30°30' E 122°36'1313.3
2014-Aug-11 13:33N 30°32' E 122°21'9 9.1
2014-Aug-11 12:33N 30°34' E 122°11'8 7.8
2014-Aug-11 11:33N 30°38' E 122°03'0 0.0
2014-Aug-11 10:33N 30°38' E 122°03'0 0.0
2014-Aug-10 10:33N 30°38' E 122°03'2 1.8
2014-Aug-10 09:34N 30°37' E 122°04'9 8.9
2014-Aug-10 08:33N 30°33' E 122°14'9 8.5
2014-Aug-10 07:33N 30°33' E 122°24'1312.7
2014-Aug-10 06:33N 30°30' E 122°38'1212.1
2014-Aug-10 05:33N 30°24' E 122°50'1111.3
2014-Aug-10 04:33N 30°16' E 122°59'1612.4
2014-Aug-10 03:17N 30°00' E 122°54'  

Dump ship's entire track history